Pagrindinis puslapis
METAR-TAF:

METAR-TAF

Oro uostai :

Hamadanas, Iranas

platuma: 34-52-05N, ilguma: 048-33-08E, Aukštis: 1757 m

Dabartinis oras

Ataskaita buvo paskelbta 1 valandą ir 8 minutes, ne 08:00 UTC
Vėjas 4 kt iš Šiaurės/Šiaurės Vakarų
Temperatūra 21°C
Drėgmė 21%
Slėgis 1024 hPa
Matomumas 10 km arba daugiau
nėra debesų žemiau 1500 m ir nėra kamuolinių lietaus debesų

METAR: OIHH 180800Z 34004KT CAVOK 21/M02 Q1024

Laikas: 12:38 (09:08 UTC)


TAF: trūkstamas

Orai ataskaitas ir orų prognozės (METAR, TAF).

turimą stotys yra geltonos ir raudonos taškus žemėlapyje.

Perkelti pele per norėdami pamatyti stoties vardą.

Tada spustelėkite, norėdami matyti oro stebėjimo ir prognozės.

Norėdami pakeisti žemėlapį: spustelėkite ant žalios mygtukų su juodo kryžiaus žemyn,; žalią mygtuką su brūkšneliu, jei norite nutolinti; arba žalių rodyklių gretimoms žemėlapius.


METAR-TAF: